createdAt,value
2023-12-30T00:00:38.501Z,57.96
2023-12-30T00:01:38.611Z,55.90
2023-12-30T00:02:38.565Z,53.74
2023-12-30T00:03:38.587Z,55.25
2023-12-30T00:04:38.596Z,55.90
2023-12-30T00:05:38.645Z,57.78
2023-12-30T00:06:38.639Z,55.89
2023-12-30T00:07:38.676Z,56.42
2023-12-30T00:08:38.699Z,57.81
2023-12-30T00:09:38.738Z,54.37
2023-12-30T00:10:38.748Z,58.03
2023-12-30T00:11:38.780Z,56.96
2023-12-30T00:12:38.794Z,56.96
2023-12-30T00:13:38.886Z,55.62
2023-12-30T00:14:38.850Z,57.54
2023-12-30T00:15:38.879Z,55.00
2023-12-30T00:16:38.909Z,54.79
2023-12-30T00:17:38.941Z,54.16
2023-12-30T00:18:39.014Z,53.57
2023-12-30T00:19:38.992Z,55.05
2023-12-30T00:20:39.646Z,53.69
2023-12-30T00:21:39.052Z,55.57
2023-12-30T00:22:39.045Z,55.05
2023-12-30T00:23:43.406Z,55.00
2023-12-30T00:24:40.088Z,55.05
2023-12-30T00:25:39.102Z,55.27
2023-12-30T00:26:39.115Z,55.00
2023-12-30T00:27:39.130Z,56.08
2023-12-30T00:28:39.152Z,57.03
2023-12-30T00:29:39.182Z,54.10
2023-12-30T00:30:39.277Z,53.80
2023-12-30T00:31:39.245Z,53.72
2023-12-30T00:32:39.370Z,53.26
2023-12-30T00:33:39.259Z,52.59
2023-12-30T00:34:39.242Z,53.55
2023-12-30T00:35:39.220Z,56.89
2023-12-30T00:36:39.237Z,54.59
2023-12-30T00:37:39.260Z,54.09
2023-12-30T00:38:39.266Z,54.29
2023-12-30T00:39:39.274Z,53.34
2023-12-30T00:40:39.336Z,54.70
2023-12-30T00:41:39.313Z,51.85
2023-12-30T00:42:39.322Z,56.56
2023-12-30T00:43:39.337Z,54.48
2023-12-30T00:44:39.363Z,57.66
2023-12-30T00:45:39.367Z,55.39
2023-12-30T00:46:39.385Z,53.69
2023-12-30T00:47:39.414Z,54.30
2023-12-30T00:48:39.478Z,53.96
2023-12-30T00:49:39.458Z,51.62
2023-12-30T00:50:39.464Z,57.31
2023-12-30T00:51:39.567Z,53.04
2023-12-30T00:52:39.493Z,53.68
2023-12-30T00:53:39.508Z,55.53
2023-12-30T00:54:44.833Z,53.36
2023-12-30T00:55:40.541Z,53.39
2023-12-30T00:56:39.545Z,53.66
2023-12-30T00:57:39.570Z,54.28
2023-12-30T00:58:39.582Z,54.78
2023-12-30T00:59:39.597Z,58.41
2023-12-30T01:00:39.670Z,55.91
2023-12-30T01:01:39.748Z,54.63
2023-12-30T01:02:39.646Z,54.92
2023-12-30T01:03:39.786Z,57.62
2023-12-30T01:04:39.772Z,54.87
2023-12-30T01:05:39.679Z,58.75
2023-12-30T01:06:39.701Z,55.43
2023-12-30T01:07:39.724Z,55.00
2023-12-30T01:08:39.759Z,58.34
2023-12-30T01:09:39.742Z,55.62
2023-12-30T01:10:39.746Z,56.64
2023-12-30T01:11:39.755Z,56.36
2023-12-30T01:12:39.768Z,55.94
2023-12-30T01:13:39.787Z,54.86
2023-12-30T01:14:39.781Z,55.16
2023-12-30T01:15:39.801Z,54.49
2023-12-30T01:16:39.799Z,54.38
2023-12-30T01:17:39.938Z,56.46
2023-12-30T01:18:39.866Z,54.52
2023-12-30T01:19:39.943Z,54.41
2023-12-30T01:20:39.863Z,56.59
2023-12-30T01:21:39.873Z,58.26
2023-12-30T01:22:39.914Z,56.44
2023-12-30T01:23:39.913Z,56.12
2023-12-30T01:24:39.954Z,56.09
2023-12-30T01:25:39.980Z,55.48
2023-12-30T01:26:40.015Z,55.19
2023-12-30T01:27:40.021Z,55.93
2023-12-30T01:28:40.037Z,54.71
2023-12-30T01:29:40.065Z,55.88
2023-12-30T01:30:40.106Z,55.42
2023-12-30T01:31:40.104Z,57.36
2023-12-30T01:32:40.232Z,56.46
2023-12-30T01:33:40.265Z,57.46
2023-12-30T01:34:40.266Z,57.48
2023-12-30T01:35:40.217Z,56.25
2023-12-30T01:36:40.261Z,54.24
2023-12-30T01:37:40.277Z,55.08
2023-12-30T01:38:40.304Z,57.24
2023-12-30T01:39:40.345Z,55.38
2023-12-30T01:40:40.366Z,55.76
2023-12-30T01:41:40.409Z,55.35
2023-12-30T01:42:40.410Z,56.66
2023-12-30T01:43:40.488Z,53.52
2023-12-30T01:44:40.472Z,56.42
2023-12-30T01:45:40.500Z,54.16
2023-12-30T01:46:40.539Z,53.25
2023-12-30T01:47:40.607Z,52.80
2023-12-30T01:48:40.658Z,55.04
2023-12-30T01:49:40.701Z,56.18
2023-12-30T01:50:40.639Z,54.05
2023-12-30T01:51:40.656Z,53.36
2023-12-30T01:52:40.695Z,54.47
2023-12-30T01:53:40.735Z,53.37
2023-12-30T01:54:40.742Z,53.01
2023-12-30T01:55:40.851Z,55.26
2023-12-30T01:56:40.815Z,55.92
2023-12-30T01:57:40.844Z,54.78
2023-12-30T01:58:40.881Z,51.05
2023-12-30T01:59:40.905Z,54.55
2023-12-30T02:00:40.942Z,54.96
2023-12-30T02:01:41.049Z,56.14
2023-12-30T02:02:41.006Z,55.07
2023-12-30T02:03:41.124Z,54.38
2023-12-30T02:04:41.111Z,52.58
2023-12-30T02:05:41.120Z,52.60
2023-12-30T02:06:41.190Z,52.74
2023-12-30T02:07:41.169Z,53.50
2023-12-30T02:08:41.193Z,54.82
2023-12-30T02:09:41.232Z,50.00
2023-12-30T02:10:41.270Z,51.61
2023-12-30T02:11:41.293Z,51.36
2023-12-30T02:12:41.355Z,52.15
2023-12-30T02:13:41.422Z,54.89
2023-12-30T02:14:41.386Z,53.09
2023-12-30T02:15:41.420Z,54.40
2023-12-30T02:16:41.449Z,57.74
2023-12-30T02:17:41.570Z,53.89
2023-12-30T02:18:41.631Z,52.03
2023-12-30T02:19:41.595Z,52.82
2023-12-30T02:20:41.581Z,52.60
2023-12-30T02:21:41.636Z,54.47
2023-12-30T02:22:41.663Z,53.21
2023-12-30T02:23:41.721Z,52.12
2023-12-30T02:24:41.737Z,57.39
2023-12-30T02:25:41.816Z,52.41
2023-12-30T02:26:41.796Z,54.60
2023-12-30T02:27:41.831Z,53.60
2023-12-30T02:28:41.861Z,55.24
2023-12-30T02:29:41.903Z,55.88
2023-12-30T02:30:41.996Z,53.37
2023-12-30T02:31:42.010Z,57.60
2023-12-30T02:32:42.053Z,55.17
2023-12-30T02:33:42.066Z,52.86
2023-12-30T02:34:42.099Z,53.28
2023-12-30T02:35:42.124Z,52.86
2023-12-30T02:36:42.150Z,54.14
2023-12-30T02:37:42.196Z,53.54
2023-12-30T02:38:42.239Z,51.11
2023-12-30T02:39:42.261Z,52.84
2023-12-30T02:40:42.295Z,54.29
2023-12-30T02:41:42.341Z,54.37
2023-12-30T02:42:42.363Z,54.13
2023-12-30T02:43:42.502Z,52.50
2023-12-30T02:44:42.435Z,54.08
2023-12-30T02:45:42.482Z,51.74
2023-12-30T02:46:42.510Z,53.39
2023-12-30T02:47:42.573Z,53.47
2023-12-30T02:48:42.605Z,56.28
2023-12-30T02:49:42.651Z,51.40
2023-12-30T02:50:42.658Z,52.75
2023-12-30T02:51:42.691Z,54.05
2023-12-30T02:52:42.722Z,55.79
2023-12-30T02:53:42.755Z,52.17
2023-12-30T02:54:42.837Z,55.79
2023-12-30T02:55:42.829Z,53.37
2023-12-30T02:56:42.867Z,51.37
2023-12-30T02:57:48.943Z,56.24
2023-12-30T02:58:44.037Z,56.27
2023-12-30T02:59:43.187Z,55.08
2023-12-30T03:00:42.977Z,56.80
2023-12-30T03:01:43.072Z,55.33
2023-12-30T03:02:43.019Z,55.49
2023-12-30T03:03:43.105Z,56.96
2023-12-30T03:04:43.080Z,58.83
2023-12-30T03:05:43.092Z,56.63
2023-12-30T03:06:43.083Z,52.56
2023-12-30T03:07:43.092Z,54.96
2023-12-30T03:08:43.120Z,56.06
2023-12-30T03:09:43.213Z,51.58
2023-12-30T03:10:43.188Z,55.32
2023-12-30T03:11:43.145Z,55.71
2023-12-30T03:12:43.169Z,55.20
2023-12-30T03:13:43.229Z,59.64
2023-12-30T03:14:43.198Z,56.46
2023-12-30T03:15:43.233Z,55.63
2023-12-30T03:16:43.228Z,56.17
2023-12-30T03:17:43.331Z,54.17
2023-12-30T03:18:43.378Z,56.97
2023-12-30T03:19:43.296Z,55.64
2023-12-30T03:20:43.345Z,56.50
2023-12-30T03:21:43.291Z,56.58
2023-12-30T03:22:43.295Z,56.41
2023-12-30T03:23:43.419Z,56.47
2023-12-30T03:24:43.348Z,54.59
2023-12-30T03:25:43.372Z,58.20
2023-12-30T03:26:43.422Z,54.78
2023-12-30T03:27:43.444Z,57.71
2023-12-30T03:28:43.484Z,56.85
2023-12-30T03:29:43.528Z,58.00
2023-12-30T03:30:43.583Z,56.01
2023-12-30T03:31:43.612Z,58.75
2023-12-30T03:32:43.713Z,57.56
2023-12-30T03:33:43.685Z,57.15
2023-12-30T03:34:43.761Z,54.35
2023-12-30T03:35:43.738Z,57.21
2023-12-30T03:36:43.766Z,55.19
2023-12-30T03:37:43.802Z,57.16
2023-12-30T03:38:43.859Z,56.55
2023-12-30T03:39:43.861Z,57.14
2023-12-30T03:40:43.926Z,56.50
2023-12-30T03:41:43.937Z,57.70
2023-12-30T03:42:43.977Z,61.24
2023-12-30T03:43:44.003Z,59.38
2023-12-30T03:44:44.029Z,58.56
2023-12-30T03:45:44.064Z,55.18
2023-12-30T03:46:44.172Z,59.45
2023-12-30T03:47:44.199Z,57.44
2023-12-30T03:48:44.208Z,57.71
2023-12-30T03:49:44.314Z,60.96
2023-12-30T03:50:44.238Z,56.60
2023-12-30T03:51:44.314Z,57.56
2023-12-30T03:52:44.310Z,55.88
2023-12-30T03:53:44.371Z,57.38
2023-12-30T03:54:44.361Z,55.47
2023-12-30T03:55:44.457Z,54.92
2023-12-30T03:56:44.435Z,57.09
2023-12-30T03:57:44.480Z,52.84
2023-12-30T03:58:44.502Z,55.25
2023-12-30T03:59:44.626Z,54.89
2023-12-30T04:00:44.581Z,53.29
2023-12-30T04:01:44.668Z,55.29
2023-12-30T04:02:44.698Z,54.45
2023-12-30T04:03:44.705Z,53.41
2023-12-30T04:04:44.752Z,54.71
2023-12-30T04:05:44.773Z,52.21
2023-12-30T04:06:44.818Z,57.88
2023-12-30T04:07:44.859Z,53.45
2023-12-30T04:08:44.896Z,53.46
2023-12-30T04:09:44.946Z,53.31
2023-12-30T04:10:44.977Z,53.37
2023-12-30T04:11:45.030Z,52.85
2023-12-30T04:12:45.054Z,54.70
2023-12-30T04:13:45.152Z,52.08
2023-12-30T04:14:45.154Z,54.91
2023-12-30T04:15:45.189Z,52.58
2023-12-30T04:16:45.257Z,55.17
2023-12-30T04:17:45.342Z,54.80
2023-12-30T04:18:45.402Z,57.12
2023-12-30T04:19:45.390Z,55.38
2023-12-30T04:20:45.416Z,53.73
2023-12-30T04:21:45.426Z,54.68
2023-12-30T04:22:45.470Z,54.06
2023-12-30T04:23:45.509Z,52.73
2023-12-30T04:24:45.549Z,57.43
2023-12-30T04:25:45.638Z,54.85
2023-12-30T04:26:45.637Z,57.80
2023-12-30T04:27:45.678Z,55.88
2023-12-30T04:28:45.754Z,57.87
2023-12-30T04:29:45.756Z,53.17
2023-12-30T04:30:45.830Z,55.55
2023-12-30T04:31:45.894Z,56.21
2023-12-30T04:32:46.006Z,57.28
2023-12-30T04:33:46.052Z,51.83
2023-12-30T04:34:46.001Z,52.60
2023-12-30T04:35:46.008Z,56.69
2023-12-30T04:36:46.038Z,55.88
2023-12-30T04:37:46.081Z,53.07
2023-12-30T04:38:47.888Z,58.90
2023-12-30T04:39:46.163Z,58.83
2023-12-30T04:40:46.206Z,54.81
2023-12-30T04:41:46.263Z,55.09
2023-12-30T04:42:53.544Z,50.00
2023-12-30T04:43:53.565Z,50.00
2023-12-30T04:44:53.557Z,50.00
2023-12-30T04:45:53.606Z,50.00
2023-12-30T04:46:53.575Z,50.00
2023-12-30T04:47:53.712Z,50.39
2023-12-30T04:48:53.747Z,50.00
2023-12-30T04:49:53.618Z,50.65
2023-12-30T04:50:53.595Z,52.59
2023-12-30T04:51:53.605Z,53.54
2023-12-30T04:52:53.609Z,51.45
2023-12-30T04:53:53.623Z,55.06
2023-12-30T04:54:53.674Z,55.19
2023-12-30T04:55:53.663Z,51.44
2023-12-30T04:56:53.659Z,56.92
2023-12-30T04:57:53.692Z,52.45
2023-12-30T04:58:53.687Z,52.53
2023-12-30T04:59:53.694Z,54.85
2023-12-30T05:00:53.890Z,55.83
2023-12-30T05:01:53.740Z,52.05
2023-12-30T05:02:53.799Z,55.16
2023-12-30T05:03:53.763Z,50.91
2023-12-30T05:04:53.754Z,52.89
2023-12-30T05:05:53.816Z,54.14
2023-12-30T05:06:53.807Z,54.47
2023-12-30T05:07:53.783Z,51.72
2023-12-30T05:08:53.780Z,55.21
2023-12-30T05:09:53.822Z,51.23
2023-12-30T05:10:53.820Z,55.76
2023-12-30T05:11:53.822Z,54.48
2023-12-30T05:12:53.955Z,54.60
2023-12-30T05:13:53.860Z,54.50
2023-12-30T05:14:53.855Z,54.58
2023-12-30T05:15:53.948Z,55.14
2023-12-30T05:16:53.897Z,54.69
2023-12-30T05:17:53.967Z,57.88
2023-12-30T05:18:54.216Z,56.76
2023-12-30T05:19:54.134Z,54.70
2023-12-30T05:20:53.988Z,53.28
2023-12-30T05:21:53.980Z,52.71
2023-12-30T05:22:53.968Z,53.62
2023-12-30T05:23:53.978Z,54.51
2023-12-30T05:24:54.023Z,55.84
2023-12-30T05:25:54.014Z,55.45
2023-12-30T05:26:54.016Z,57.02
2023-12-30T05:27:54.049Z,55.17
2023-12-30T05:28:54.045Z,55.96
2023-12-30T05:29:54.065Z,54.15
2023-12-30T05:30:54.151Z,56.15
2023-12-30T05:31:54.155Z,54.13
2023-12-30T05:32:54.189Z,55.52
2023-12-30T05:33:54.265Z,52.74
2023-12-30T05:34:54.169Z,55.81
2023-12-30T05:35:54.157Z,56.29
2023-12-30T05:36:54.205Z,53.94
2023-12-30T05:37:54.156Z,55.20
2023-12-30T05:38:54.179Z,51.58
2023-12-30T05:39:54.271Z,55.47
2023-12-30T05:40:54.205Z,56.44
2023-12-30T05:41:54.239Z,56.67
2023-12-30T05:42:54.268Z,54.14
2023-12-30T05:43:54.273Z,55.75
2023-12-30T05:44:54.390Z,54.92
2023-12-30T05:45:54.474Z,55.61
2023-12-30T05:46:54.316Z,54.89
2023-12-30T05:47:54.714Z,56.91
2023-12-30T05:48:54.490Z,55.23
2023-12-30T05:49:54.439Z,55.50
2023-12-30T05:50:54.491Z,57.88
2023-12-30T05:51:54.507Z,54.22
2023-12-30T05:52:54.513Z,54.32
2023-12-30T05:53:54.537Z,53.06
2023-12-30T05:54:54.604Z,55.72
2023-12-30T05:55:54.682Z,50.86
2023-12-30T05:56:54.716Z,55.40
2023-12-30T05:57:54.746Z,54.42
2023-12-30T05:58:54.932Z,54.82
2023-12-30T05:59:54.799Z,54.88
2023-12-30T06:00:54.912Z,55.25
2023-12-30T06:01:54.986Z,53.77
2023-12-30T06:02:54.916Z,52.61
2023-12-30T06:03:55.000Z,52.81
2023-12-30T06:04:55.071Z,55.49
2023-12-30T06:05:55.123Z,58.08
2023-12-30T06:06:55.152Z,56.09
2023-12-30T06:07:55.117Z,55.72
2023-12-30T06:08:55.153Z,56.86
2023-12-30T06:09:55.210Z,56.00
2023-12-30T06:10:55.332Z,52.33
2023-12-30T06:11:55.273Z,54.67
2023-12-30T06:12:55.336Z,54.82
2023-12-30T06:13:55.349Z,53.97
2023-12-30T06:14:55.396Z,54.69
2023-12-30T06:15:55.440Z,56.12
2023-12-30T06:16:55.541Z,56.53
2023-12-30T06:17:55.578Z,55.77
2023-12-30T06:18:55.604Z,56.33
2023-12-30T06:19:55.611Z,54.77
2023-12-30T06:20:55.630Z,58.41
2023-12-30T06:21:55.700Z,57.07
2023-12-30T06:22:55.709Z,57.22
2023-12-30T06:23:55.761Z,56.80
2023-12-30T06:24:55.816Z,55.79
2023-12-30T06:25:55.916Z,55.23
2023-12-30T06:26:55.870Z,56.79
2023-12-30T06:27:55.908Z,54.32
2023-12-30T06:28:56.059Z,52.62
2023-12-30T06:29:55.984Z,57.49
2023-12-30T06:30:56.208Z,57.43
2023-12-30T06:31:56.056Z,58.06
2023-12-30T06:32:56.209Z,56.81
2023-12-30T06:33:56.233Z,57.47
2023-12-30T06:34:56.160Z,57.80
2023-12-30T06:35:56.196Z,53.69
2023-12-30T06:36:56.261Z,56.02
2023-12-30T06:37:56.273Z,54.61
2023-12-30T06:38:56.311Z,56.32
2023-12-30T06:39:56.393Z,55.39
2023-12-30T06:40:56.392Z,55.84
2023-12-30T06:41:57.829Z,55.84
2023-12-30T06:42:56.518Z,55.23
2023-12-30T06:43:56.508Z,57.66
2023-12-30T06:44:56.555Z,57.30
2023-12-30T06:45:56.605Z,55.48
2023-12-30T06:46:56.635Z,55.14
2023-12-30T06:47:56.741Z,58.00
2023-12-30T06:48:56.763Z,56.27
2023-12-30T06:49:56.802Z,54.38
2023-12-30T06:50:56.782Z,54.83
2023-12-30T06:51:56.853Z,57.16
2023-12-30T06:52:56.850Z,53.45
2023-12-30T06:53:56.902Z,54.58
2023-12-30T06:55:06.729Z,54.62
2023-12-30T06:55:57.991Z,54.65
2023-12-30T06:56:56.946Z,54.70
2023-12-30T06:57:56.983Z,55.45
2023-12-30T06:58:56.970Z,56.25
2023-12-30T06:59:56.985Z,55.41
2023-12-30T07:00:57.041Z,53.33
2023-12-30T07:01:57.011Z,53.82
2023-12-30T07:02:57.016Z,55.25
2023-12-30T07:03:57.010Z,56.61
2023-12-30T07:04:57.086Z,55.01
2023-12-30T07:05:57.033Z,57.07
2023-12-30T07:06:57.067Z,54.56
2023-12-30T07:07:57.053Z,54.42
2023-12-30T07:08:57.080Z,55.70
2023-12-30T07:09:57.120Z,56.75
2023-12-30T07:10:57.099Z,53.05
2023-12-30T07:11:57.125Z,56.21
2023-12-30T07:12:57.193Z,55.29
2023-12-30T07:13:57.145Z,55.02
2023-12-30T07:14:57.194Z,58.04
2023-12-30T07:15:57.235Z,55.46
2023-12-30T07:16:57.271Z,55.70
2023-12-30T07:17:57.347Z,54.83
2023-12-30T07:18:57.474Z,55.99
2023-12-30T07:19:57.453Z,54.59
2023-12-30T07:20:57.433Z,51.53
2023-12-30T07:21:57.507Z,52.08
2023-12-30T07:22:57.527Z,54.93
2023-12-30T07:23:57.556Z,55.99
2023-12-30T07:24:57.610Z,54.47
2023-12-30T07:25:57.644Z,52.67
2023-12-30T07:26:59.422Z,52.66
2023-12-30T07:27:57.791Z,57.05
2023-12-30T07:28:57.768Z,56.31
2023-12-30T07:29:57.795Z,51.95
2023-12-30T07:30:58.033Z,55.15
2023-12-30T07:31:57.876Z,55.62
2023-12-30T07:32:57.986Z,54.42
2023-12-30T07:33:58.062Z,55.20
2023-12-30T07:34:58.030Z,54.10
2023-12-30T07:35:58.043Z,52.05
2023-12-30T07:36:58.094Z,56.80
2023-12-30T07:37:58.134Z,51.29
2023-12-30T07:38:58.154Z,54.32
2023-12-30T07:39:58.205Z,51.82
2023-12-30T07:40:58.232Z,52.33
2023-12-30T07:41:58.270Z,53.56
2023-12-30T07:42:58.320Z,56.61
2023-12-30T07:43:58.353Z,53.58
2023-12-30T07:44:58.420Z,54.57
2023-12-30T07:45:58.560Z,55.32
2023-12-30T07:46:58.487Z,56.78
2023-12-30T07:47:58.646Z,56.98
2023-12-30T07:48:58.653Z,55.58
2023-12-30T07:49:58.655Z,53.71
2023-12-30T07:50:58.654Z,57.93
2023-12-30T07:51:59.075Z,54.26
2023-12-30T07:52:58.804Z,54.71
2023-12-30T07:53:58.758Z,53.95
2023-12-30T07:54:58.858Z,55.16
2023-12-30T07:55:58.845Z,58.51
2023-12-30T07:56:58.881Z,55.16
2023-12-30T07:57:58.959Z,53.04
2023-12-30T07:58:58.952Z,54.84
2023-12-30T07:59:59.009Z,55.93
2023-12-30T08:00:59.100Z,54.55
2023-12-30T08:01:59.236Z,53.66
2023-12-30T08:02:59.192Z,55.13
2023-12-30T08:03:59.538Z,53.72
2023-12-30T08:04:59.219Z,55.00
2023-12-30T08:05:59.334Z,53.62
2023-12-30T08:06:59.332Z,56.83
2023-12-30T08:07:59.340Z,55.09
2023-12-30T08:08:59.452Z,56.19
2023-12-30T08:09:59.451Z,55.29
2023-12-30T08:10:59.551Z,52.14
2023-12-30T08:12:02.833Z,57.14
2023-12-30T08:12:59.631Z,58.22
2023-12-30T08:13:59.530Z,54.96
2023-12-30T08:14:59.532Z,57.90
2023-12-30T08:15:59.581Z,56.58
2023-12-30T08:16:59.669Z,54.86
2023-12-30T08:17:59.592Z,53.91
2023-12-30T08:18:59.663Z,54.43
2023-12-30T08:19:59.594Z,53.97
2023-12-30T08:20:59.604Z,53.61
2023-12-30T08:21:59.649Z,52.52
2023-12-30T08:22:59.957Z,52.80
2023-12-30T08:23:59.649Z,51.67
2023-12-30T08:24:59.716Z,54.51
2023-12-30T08:25:59.668Z,54.75
2023-12-30T08:26:59.675Z,54.96
2023-12-30T08:27:59.710Z,54.04
2023-12-30T08:28:59.696Z,56.38
2023-12-30T08:29:59.760Z,57.76
2023-12-30T08:30:59.830Z,55.65
2023-12-30T08:31:59.734Z,56.31
2023-12-30T08:32:59.931Z,55.57
2023-12-30T08:33:59.870Z,55.76
2023-12-30T08:34:59.824Z,55.01
2023-12-30T08:35:59.792Z,56.04
2023-12-30T08:36:59.807Z,56.54
2023-12-30T08:37:59.812Z,51.25
2023-12-30T08:38:59.811Z,55.14
2023-12-30T08:39:59.856Z,54.49
2023-12-30T08:40:59.838Z,54.34
2023-12-30T08:41:59.928Z,56.87
2023-12-30T08:42:59.989Z,54.64
2023-12-30T08:43:59.887Z,55.12
2023-12-30T08:44:59.910Z,56.91
2023-12-30T08:45:59.988Z,56.43
2023-12-30T08:46:59.978Z,52.87
2023-12-30T08:48:00.002Z,55.74
2023-12-30T08:49:00.009Z,54.82
2023-12-30T08:50:00.017Z,54.17
2023-12-30T08:50:59.963Z,56.78
2023-12-30T08:52:00.044Z,55.06
2023-12-30T08:53:00.320Z,56.05
2023-12-30T08:54:00.036Z,52.86
2023-12-30T08:55:00.506Z,57.16
2023-12-30T08:56:00.037Z,54.92
2023-12-30T08:57:00.056Z,52.66
2023-12-30T08:58:00.137Z,55.06
2023-12-30T08:59:00.092Z,55.92
2023-12-30T09:00:00.190Z,55.83
2023-12-30T09:01:00.411Z,56.37
2023-12-30T09:02:00.232Z,54.69
2023-12-30T09:03:00.351Z,54.10
2023-12-30T09:04:00.323Z,51.96
2023-12-30T09:05:00.339Z,56.42
2023-12-30T09:06:00.320Z,55.60
2023-12-30T09:07:00.295Z,52.02
2023-12-30T09:08:00.282Z,54.92
2023-12-30T09:09:00.329Z,55.78
2023-12-30T09:10:00.431Z,54.14
2023-12-30T09:11:00.423Z,54.81
2023-12-30T09:12:00.545Z,57.86
2023-12-30T09:13:00.953Z,57.60
2023-12-30T09:14:00.540Z,55.03
2023-12-30T09:15:00.606Z,57.24
2023-12-30T09:16:00.660Z,56.15
2023-12-30T09:17:00.684Z,58.25
2023-12-30T09:18:00.938Z,55.51
2023-12-30T09:19:00.849Z,53.12
2023-12-30T09:20:00.867Z,53.42
2023-12-30T09:21:00.821Z,54.56
2023-12-30T09:22:00.912Z,53.76
2023-12-30T09:23:01.233Z,53.34
2023-12-30T09:24:00.975Z,54.16
2023-12-30T09:25:01.010Z,54.85
2023-12-30T09:26:01.020Z,54.73
2023-12-30T09:27:01.062Z,56.56
2023-12-30T09:28:01.180Z,53.32
2023-12-30T09:29:01.232Z,54.96
2023-12-30T09:30:01.178Z,54.49
2023-12-30T09:31:01.323Z,53.65
2023-12-30T09:32:01.229Z,54.85
2023-12-30T09:33:01.764Z,54.45
2023-12-30T09:34:01.465Z,53.56
2023-12-30T09:35:01.513Z,54.25
2023-12-30T09:36:01.375Z,53.16
2023-12-30T09:37:01.458Z,52.00
2023-12-30T09:38:01.451Z,55.74
2023-12-30T09:39:01.484Z,53.65
2023-12-30T09:40:01.685Z,57.13
2023-12-30T09:41:01.568Z,53.58
2023-12-30T09:42:01.607Z,54.66
2023-12-30T09:43:01.842Z,54.31
2023-12-30T09:44:01.665Z,52.31
2023-12-30T09:45:01.716Z,52.44
2023-12-30T09:46:02.520Z,53.04
2023-12-30T09:47:01.757Z,54.70
2023-12-30T09:48:01.874Z,52.08
2023-12-30T09:49:01.818Z,51.99
2023-12-30T09:50:01.864Z,55.21
2023-12-30T09:51:01.820Z,53.93
2023-12-30T09:52:01.831Z,53.74
2023-12-30T09:53:02.145Z,51.12
2023-12-30T09:54:01.880Z,52.74
2023-12-30T09:55:01.930Z,54.89
2023-12-30T09:56:01.895Z,50.00
2023-12-30T09:57:01.909Z,51.18
2023-12-30T09:58:01.984Z,51.41
2023-12-30T09:59:01.997Z,54.19
2023-12-30T10:00:02.063Z,50.97
2023-12-30T10:01:02.087Z,53.94
2023-12-30T10:02:02.036Z,54.14
2023-12-30T10:03:02.366Z,55.63
2023-12-30T10:04:02.057Z,52.74
2023-12-30T10:05:02.070Z,51.02
2023-12-30T10:06:02.083Z,53.51
2023-12-30T10:07:02.928Z,52.91
2023-12-30T10:08:02.077Z,52.94
2023-12-30T10:09:02.107Z,53.14
2023-12-30T10:10:02.136Z,53.56
2023-12-30T10:11:02.128Z,53.60
2023-12-30T10:12:02.160Z,53.15
2023-12-30T10:13:02.408Z,54.98
2023-12-30T10:14:02.225Z,51.11
2023-12-30T10:15:02.194Z,53.41
2023-12-30T10:16:02.285Z,50.16
2023-12-30T10:17:02.221Z,52.64
2023-12-30T10:18:02.325Z,51.38
2023-12-30T10:19:02.379Z,54.83
2023-12-30T10:20:02.509Z,52.75
2023-12-30T10:21:02.348Z,53.51
2023-12-30T10:22:02.426Z,54.36
2023-12-30T10:23:02.553Z,53.51
2023-12-30T10:24:02.437Z,56.73
2023-12-30T10:25:02.540Z,54.58
2023-12-30T10:26:02.602Z,56.02
2023-12-30T10:27:02.526Z,53.48
2023-12-30T10:28:02.685Z,55.47
2023-12-30T10:29:02.583Z,52.54
2023-12-30T10:30:02.623Z,52.81
2023-12-30T10:31:02.757Z,56.44
2023-12-30T10:32:02.684Z,55.30
2023-12-30T10:33:02.922Z,56.54
2023-12-30T10:34:02.863Z,55.17
2023-12-30T10:35:02.799Z,55.17
2023-12-30T10:36:02.813Z,57.68
2023-12-30T10:37:02.894Z,57.13
2023-12-30T10:38:02.869Z,59.21
2023-12-30T10:39:02.898Z,58.84
2023-12-30T10:40:02.997Z,58.97
2023-12-30T10:41:03.037Z,57.60
2023-12-30T10:42:03.005Z,58.01
2023-12-30T10:43:03.259Z,59.07
2023-12-30T10:44:03.094Z,60.02
2023-12-30T10:45:03.071Z,58.02
2023-12-30T10:46:03.153Z,59.20
2023-12-30T10:47:03.122Z,59.99
2023-12-30T10:48:03.286Z,60.65
2023-12-30T10:49:03.250Z,58.24
2023-12-30T10:50:03.284Z,58.30
2023-12-30T10:51:03.274Z,60.67
2023-12-30T10:52:03.290Z,59.20
2023-12-30T10:53:03.618Z,60.55
2023-12-30T10:54:03.317Z,59.70
2023-12-30T10:55:03.389Z,62.17
2023-12-30T10:56:03.383Z,60.74
2023-12-30T10:57:03.404Z,61.09
2023-12-30T10:58:03.460Z,59.81
2023-12-30T10:59:03.466Z,62.49
2023-12-30T11:00:03.487Z,61.68
2023-12-30T11:01:03.626Z,60.67
2023-12-30T11:02:03.637Z,61.55
2023-12-30T11:03:03.842Z,60.73
2023-12-30T11:04:03.711Z,60.24
2023-12-30T11:05:03.806Z,59.40
2023-12-30T11:06:03.755Z,58.73
2023-12-30T11:07:03.727Z,59.01
2023-12-30T11:08:03.735Z,61.09
2023-12-30T11:09:03.762Z,62.10
2023-12-30T11:10:03.824Z,58.55
2023-12-30T11:11:03.819Z,60.95
2023-12-30T11:12:03.836Z,61.47
2023-12-30T11:13:04.291Z,60.34
2023-12-30T11:14:03.897Z,61.99
2023-12-30T11:15:03.950Z,59.84
2023-12-30T11:16:03.986Z,62.46
2023-12-30T11:17:03.992Z,60.85
2023-12-30T11:18:04.060Z,59.76
2023-12-30T11:19:04.093Z,61.02
2023-12-30T11:20:04.208Z,63.30
2023-12-30T11:21:04.165Z,59.95
2023-12-30T11:22:04.192Z,59.56
2023-12-30T11:23:04.554Z,60.92
2023-12-30T11:24:04.141Z,62.30
2023-12-30T11:25:04.208Z,61.44
2023-12-30T11:26:04.199Z,61.77
2023-12-30T11:27:04.216Z,63.96
2023-12-30T11:28:04.266Z,63.28
2023-12-30T11:29:04.279Z,62.44
2023-12-30T11:30:04.505Z,62.18
2023-12-30T11:31:04.448Z,59.84
2023-12-30T11:32:04.361Z,60.47
2023-12-30T11:33:04.629Z,62.60
2023-12-30T11:34:04.480Z,60.09
2023-12-30T11:35:04.525Z,61.84
2023-12-30T11:36:04.455Z,59.35
2023-12-30T11:37:04.515Z,59.49
2023-12-30T11:38:04.488Z,59.30
2023-12-30T11:39:04.530Z,63.38
2023-12-30T11:40:04.683Z,62.56
2023-12-30T11:41:04.675Z,59.65
2023-12-30T11:42:04.686Z,64.14
2023-12-30T11:43:04.864Z,63.84
2023-12-30T11:44:04.632Z,61.34
2023-12-30T11:45:04.652Z,61.04
2023-12-30T11:46:04.700Z,59.88
2023-12-30T11:47:04.698Z,59.96
2023-12-30T11:48:04.757Z,61.75
2023-12-30T11:49:04.799Z,62.68
2023-12-30T11:50:04.779Z,59.52
2023-12-30T11:51:04.781Z,61.92
2023-12-30T11:52:04.970Z,59.40
2023-12-30T11:53:05.129Z,62.60
2023-12-30T11:54:04.835Z,63.31
2023-12-30T11:55:04.918Z,63.00
2023-12-30T11:56:04.892Z,59.25
2023-12-30T11:57:04.909Z,63.33
2023-12-30T11:58:04.936Z,64.57
2023-12-30T11:59:04.954Z,62.35
2023-12-30T12:00:04.968Z,63.69
2023-12-30T12:01:05.044Z,62.01
2023-12-30T12:02:05.083Z,60.12
2023-12-30T12:03:05.435Z,62.45
2023-12-30T12:04:05.156Z,60.52
2023-12-30T12:05:05.149Z,60.80
2023-12-30T12:06:05.104Z,60.30
2023-12-30T12:07:05.179Z,60.37
2023-12-30T12:08:05.233Z,58.63
2023-12-30T12:09:05.193Z,58.87
2023-12-30T12:10:05.237Z,59.83
2023-12-30T12:11:05.208Z,60.33
2023-12-30T12:12:05.234Z,61.61
2023-12-30T12:13:05.486Z,60.87
2023-12-30T12:14:05.264Z,59.40
2023-12-30T12:15:05.274Z,58.78
2023-12-30T12:16:05.393Z,62.25
2023-12-30T12:17:05.320Z,58.22
2023-12-30T12:18:05.627Z,59.91
2023-12-30T12:19:05.737Z,61.87
2023-12-30T12:20:05.431Z,60.02
2023-12-30T12:21:05.392Z,60.89
2023-12-30T12:22:05.446Z,60.24
2023-12-30T12:23:05.424Z,59.28
2023-12-30T12:24:05.443Z,60.08
2023-12-30T12:25:05.518Z,59.70
2023-12-30T12:26:05.476Z,58.19
2023-12-30T12:27:05.679Z,59.38
2023-12-30T12:28:05.592Z,60.83
2023-12-30T12:29:05.531Z,58.40
2023-12-30T12:30:05.634Z,59.73
2023-12-30T12:31:05.686Z,58.29
2023-12-30T12:32:05.596Z,58.11
2023-12-30T12:33:05.878Z,59.61
2023-12-30T12:34:05.696Z,56.39
2023-12-30T12:35:05.753Z,58.33
2023-12-30T12:36:05.700Z,60.06
2023-12-30T12:37:05.710Z,58.51
2023-12-30T12:38:05.720Z,58.60
2023-12-30T12:39:05.733Z,57.94
2023-12-30T12:40:05.792Z,57.60
2023-12-30T12:41:05.779Z,55.89
2023-12-30T12:42:14.844Z,58.59
2023-12-30T12:43:07.041Z,57.10
2023-12-30T12:44:05.813Z,56.33
2023-12-30T12:45:05.825Z,56.14
2023-12-30T12:46:05.862Z,55.77
2023-12-30T12:47:05.854Z,55.12
2023-12-30T12:48:06.070Z,53.07
2023-12-30T12:49:06.051Z,55.67
2023-12-30T12:50:06.022Z,54.09
2023-12-30T12:51:05.911Z,54.90
2023-12-30T12:52:06.002Z,53.40
2023-12-30T12:53:06.008Z,54.23